Aeroporto :
LOGIN :

Iscrizione | Disclaimer

   EN    FR    IT 

 










Sommario :    VFR   VFR Marginale   IFR   IFR Intensivo   IFR Molto Intensivo
Visibilità : 
Base nubi : 
>= 8 km
>= 3000ft
5 / 8 km
1000 / 3000 ft
1500m / 5 km
500 / 1000 ft
800 / 1500m
200 / 500 ft
< 800m
< 200 ft
Simboli :   Temporali  Nebbia  Neve Forte  Precipitazioni Forti  Vento > 20 kt
SIGMETs :   Varie  Temporali  Ghiacco  Turbolenza  Onda orograficha  Ceneri Vulcaniche






- Altitudine del aeroporto : 63 ft
- Codice IATA : BZM


EHWO - Woensdrecht Airbase

ULTIMO METAR :
  • 180315Z AUTO 04004KT 010V100 1400 RA FEW001 SCT010 BKN015CB 19/19 Q1014 AMB

METARs OBSOLETI :
  • 180309Z AUTO 11004KT 070V220 1600 RA FEW003 SCT012 BKN015CB 19/19 Q1014 YLO
  • 180255Z AUTO VRB02KT 1700 +RA FEW007 BKN015CB OVC035 19/19 Q1014 RERA REDZ YLO
  • 180239Z AUTO 31005KT 260V350 2600 +RA SCT015CB BKN032 BKN038 OVC042 19/18 Q1013 YLO
  • 180234Z AUTO 32004KT 270V360 2800 DZRA FEW015CB OVC036 19/18 Q1013 YLO
  • 180225Z AUTO 32005KT 270V350 2800 -DZ FEW015CB BKN036 OVC041 19/18 Q1013 YLO
  • 180156Z AUTO 30005KT 270V340 2900 -RA SCT015CB SCT032 BKN052 19/18 Q1013 YLO
  • 180155Z AUTO 30005KT 270V350 2600 -RA BKN015CB SCT032 BKN049 19/18 Q1013 RERA YLO
  • 180139Z AUTO 26003KT 230V350 3200 RA FEW015CB SCT051 OVC063 19/18 Q1013 YLO
  • 180129Z AUTO VRB02KT 3500 BR FEW015CB OVC063 19/18 Q1013 YLO
  • 180106Z AUTO 02005KT 320V050 4500 BR OVC064 19/18 Q1013 GRN
  • 180055Z AUTO 03005KT 340V060 4700 BR FEW015CB BKN067 OVC073 19/18 Q1013 RERA GRN
  • 180041Z AUTO 32003KT 290V010 5000 -RA SCT015CB SCT031 BKN043 19/18 Q1013 WHT
  • 180033Z AUTO 33005KT 250V020 3900 SHRA BKN015CB SCT038 BKN050 19/18 Q1013 GRN

Previsioni scadute.



MetMap, La meteo Aeronautica in un colpo d'occhio ! - Copyright ORBIFLY Dicembre 2007 - Disclaimer

ORBIFLY MET'MAP TEAM :

Programmazione e sviluppo : Alexandra Zaïnal
Concezione : Baudouin d'Aumeries
Aiuto per la programmazione : Marc-Olivier Méhu
Supporto tecnico e logistico : Manuel Goepfert
Aiuto per la traduzione : Arnaldo La Scala

Contatto : metmap@orbifly.com




FONTI E CREDITI :

   NOAA